Time;durP1;ratioP1;P1;durP2;ratioP2;P2;SDS_P1;SDS_P2;PMS_P1;PMS_P2;Temp;Humidity;BMP_temperature;BMP_pressure;BME280_temperature;BME280_humidity;BME280_pressure;Samples;Min_cycle;Max_cycle;Signal;HPM_P1;HPM_P2
2022/09/15 00:01:20;;;;;;;10.60;9.50;;;;;;;18.22;93.75;96512.48;107001;1281;22564;-88
2022/09/15 00:03:49;;;;;;;12.90;11.60;;;;;;;18.21;93.57;96507.80;107784;1282;22617;-89
2022/09/15 00:06:17;;;;;;;13.10;11.10;;;;;;;18.08;92.75;96503.85;108742;1281;22770;-89
2022/09/15 00:08:45;;;;;;;15.20;12.10;;;;;;;17.93;92.62;96502.98;108354;1281;22642;-88
2022/09/15 00:11:23;;;;;;;12.90;11.10;;;;;;;17.76;92.42;96497.89;108692;1271;22829;31
2022/09/15 00:13:52;;;;;;;13.50;11.10;;;;;;;17.56;92.62;96495.40;108216;1280;22566;-93
2022/09/15 00:16:24;;;;;;;11.10;9.20;;;;;;;17.40;93.00;96495.52;108517;1280;22532;-90
2022/09/15 00:18:52;;;;;;;10.40;9.40;;;;;;;17.25;93.10;96492.68;107650;1280;22586;-90
2022/09/15 00:21:25;;;;;;;10.80;9.70;;;;;;;17.17;93.21;96486.23;108184;1280;22594;-93
2022/09/15 00:23:53;;;;;;;10.40;9.10;;;;;;;17.08;93.29;96486.54;108247;1280;25354;-91
2022/09/15 00:26:25;;;;;;;10.80;8.80;;;;;;;17.02;93.54;96482.77;106422;1278;24218;-91
2022/09/15 00:28:55;;;;;;;9.60;8.70;;;;;;;16.96;93.51;96475.17;105928;1280;22546;-89
2022/09/15 00:31:26;;;;;;;10.70;8.70;;;;;;;16.89;93.72;96473.40;105805;1279;22614;-91
2022/09/15 00:33:57;;;;;;;11.80;10.00;;;;;;;16.83;94.06;96471.85;106154;1280;22648;-93
2022/09/15 00:36:25;;;;;;;17.40;14.70;;;;;;;16.80;94.07;96478.82;106382;1280;22559;-92
2022/09/15 00:38:54;;;;;;;13.10;11.20;;;;;;;16.75;94.12;96472.08;106207;1280;24209;-93
2022/09/15 00:41:23;;;;;;;13.60;11.50;;;;;;;16.70;93.99;96471.61;105811;1280;24214;-88
2022/09/15 00:44:24;;;;;;;12.40;11.20;;;;;;;16.65;94.38;96474.91;105758;1280;22576;-91
2022/09/15 00:46:56;;;;;;;11.00;9.90;;;;;;;16.58;94.22;96479.35;105574;1280;22825;-91
2022/09/15 00:49:48;;;;;;;11.10;9.70;;;;;;;16.53;94.46;96476.41;106045;1280;22584;-92
2022/09/15 00:52:41;;;;;;;10.80;9.80;;;;;;;16.48;94.68;96465.95;106516;1278;24240;-92
2022/09/15 00:55:28;;;;;;;11.40;10.30;;;;;;;16.39;94.84;96459.88;106064;1279;22691;-92
2022/09/15 00:58:10;;;;;;;13.40;11.00;;;;;;;16.33;94.80;96460.44;107805;1280;22551;-89
2022/09/15 01:00:47;;;;;;;12.70;11.40;;;;;;;16.28;94.96;96454.48;108787;1280;23621;-92
2022/09/15 01:03:16;;;;;;;12.90;11.70;;;;;;;16.24;94.98;96457.99;109000;1279;22884;-87
2022/09/15 01:06:01;;;;;;;13.20;11.80;;;;;;;16.24;95.30;96454.89;109236;1268;22485;31
2022/09/15 01:12:02;;;;;;;11.50;9.00;;;;;;;16.19;97.53;96448.46;107116;1269;23708;31
2022/09/15 01:14:38;;;;;;;11.20;9.50;;;;;;;16.08;97.17;96451.67;109278;1269;23615;-90
2022/09/15 01:17:50;;;;;;;11.40;10.30;;;;;;;16.06;96.98;96448.01;109310;1270;22618;31
2022/09/15 01:20:18;;;;;;;12.30;11.20;;;;;;;16.07;96.85;96445.92;109305;1269;22663;-85
2022/09/15 01:35:16;;;;;;;16.80;15.10;;;;;;;16.23;97.35;96442.20;109425;1279;22980;-88
2022/09/15 01:37:56;;;;;;;20.10;18.40;;;;;;;16.23;97.47;96441.60;109034;1280;22542;-86
2022/09/15 01:40:30;;;;;;;20.00;18.20;;;;;;;16.21;97.47;96432.98;108964;1279;22734;-92
2022/09/15 01:43:00;;;;;;;17.10;15.70;;;;;;;16.22;97.56;96426.29;108454;1280;23822;-91
2022/09/15 01:45:32;;;;;;;13.80;12.40;;;;;;;16.24;97.74;96419.33;108658;1278;22545;-91
2022/09/15 01:48:04;;;;;;;11.50;10.30;;;;;;;16.23;97.97;96422.98;108514;1280;22576;-86
2022/09/15 01:50:37;;;;;;;10.30;9.30;;;;;;;16.21;98.19;96418.42;109059;1279;25259;-89
2022/09/15 01:53:13;;;;;;;10.60;9.50;;;;;;;16.21;98.27;96419.37;108745;1280;22751;-93
2022/09/15 01:56:01;;;;;;;10.50;9.50;;;;;;;16.22;98.28;96420.70;108490;1280;22934;-90
2022/09/15 01:58:29;;;;;;;10.70;9.70;;;;;;;16.23;98.24;96423.65;108992;1280;22700;-92
2022/09/15 02:03:46;;;;;;;11.60;10.10;;;;;;;16.25;98.45;96422.05;107883;1281;22962;-86
2022/09/15 02:06:19;;;;;;;10.20;9.20;;;;;;;16.25;98.51;96417.08;107951;1281;22727;-89
2022/09/15 02:09:02;;;;;;;10.70;9.70;;;;;;;16.27;98.67;96419.75;107482;1281;22625;-93
2022/09/15 02:11:34;;;;;;;11.80;10.60;;;;;;;16.26;98.60;96417.88;107519;1281;22496;-90
2022/09/15 02:14:34;;;;;;;11.70;10.50;;;;;;;16.24;98.93;96415.06;107868;1281;22547;-92
2022/09/15 02:17:04;;;;;;;12.90;11.70;;;;;;;16.26;99.05;96409.94;107976;1281;22673;-90
2022/09/15 02:19:39;;;;;;;12.80;11.50;;;;;;;16.26;99.09;96411.67;106664;1281;22946;-89
2022/09/15 02:22:26;;;;;;;14.90;13.60;;;;;;;16.26;99.29;96405.52;106662;1281;22614;-91
2022/09/15 02:25:10;;;;;;;11.80;10.60;;;;;;;16.24;99.61;96401.39;106370;1281;22891;-92
2022/09/15 02:27:46;;;;;;;11.80;10.70;;;;;;;16.22;99.91;96406.65;106368;1281;22622;-92
2022/09/15 02:30:16;;;;;;;11.60;10.20;;;;;;;16.21;99.98;96403.08;106564;1281;24263;-92
2022/09/15 02:32:57;;;;;;;12.90;10.00;;;;;;;16.21;100.00;96400.11;106699;1281;24173;-92
2022/09/15 02:35:31;;;;;;;14.30;10.70;;;;;;;16.23;100.00;96394.23;107196;1281;22701;-92
2022/09/15 02:38:00;;;;;;;11.40;9.50;;;;;;;16.20;100.00;96397.31;107120;1281;22524;-94
2022/09/15 02:40:29;;;;;;;11.70;10.00;;;;;;;16.22;100.00;96394.60;107481;1281;22720;-91
2022/09/15 02:43:04;;;;;;;11.70;10.50;;;;;;;16.21;100.00;96391.27;107841;1281;23361;-90
2022/09/15 02:45:32;;;;;;;10.60;9.40;;;;;;;16.21;100.00;96389.17;108025;1281;24384;-91
2022/09/15 02:48:00;;;;;;;13.40;11.40;;;;;;;16.21;100.00;96393.75;108496;1282;22659;-93
2022/09/15 02:50:29;;;;;;;12.70;10.50;;;;;;;16.24;100.00;96395.09;108552;1281;22644;-92
2022/09/15 02:52:57;;;;;;;12.40;10.00;;;;;;;16.24;100.00;96398.73;108488;1281;23469;-93
2022/09/15 02:55:28;;;;;;;13.60;10.60;;;;;;;16.25;100.00;96404.20;108307;1281;22546;-92
2022/09/15 02:57:56;;;;;;;12.00;10.10;;;;;;;16.26;100.00;96396.59;107844;1281;26654;-92
2022/09/15 03:00:27;;;;;;;14.60;12.40;;;;;;;16.25;100.00;96397.36;108069;1281;23455;-90
2022/09/15 03:02:55;;;;;;;16.40;11.50;;;;;;;16.25;100.00;96395.19;108993;1281;22569;-82
2022/09/15 03:05:27;;;;;;;15.00;11.20;;;;;;;16.28;100.00;96387.30;109163;1281;22597;-89
2022/09/15 03:07:56;;;;;;;13.20;10.40;;;;;;;16.28;100.00;96383.57;108927;1281;23205;-90
2022/09/15 03:10:24;;;;;;;13.70;10.50;;;;;;;16.30;100.00;96378.47;109011;1281;22669;-85
2022/09/15 03:12:54;;;;;;;12.70;11.10;;;;;;;16.33;100.00;96374.23;108691;1281;22563;-92
2022/09/15 03:15:24;;;;;;;10.70;9.60;;;;;;;16.34;100.00;96371.52;107926;1281;22968;-93
2022/09/15 03:17:53;;;;;;;11.30;10.20;;;;;;;16.34;100.00;96372.92;108920;1281;22623;-88
2022/09/15 03:20:30;;;;;;;10.50;9.40;;;;;;;16.36;100.00;96370.91;108871;1281;22687;-92
2022/09/15 03:22:58;;;;;;;13.00;10.30;;;;;;;16.40;100.00;96367.46;108903;1281;24344;-90
2022/09/15 03:25:26;;;;;;;11.30;10.20;;;;;;;16.41;100.00;96370.48;108594;1281;22657;-89
2022/09/15 03:27:54;;;;;;;13.10;11.20;;;;;;;16.42;100.00;96366.08;108265;1281;22730;-91
2022/09/15 03:30:22;;;;;;;13.90;10.00;;;;;;;16.43;100.00;96367.95;107888;1281;22628;-89
2022/09/15 03:32:50;;;;;;;10.50;9.30;;;;;;;16.46;100.00;96365.57;108599;1281;22593;-90
2022/09/15 03:35:18;;;;;;;10.30;9.10;;;;;;;16.50;100.00;96362.89;108291;1281;22836;-90
2022/09/15 03:37:46;;;;;;;11.80;8.90;;;;;;;16.51;100.00;96364.52;108388;1281;24132;-88
2022/09/15 03:40:14;;;;;;;11.20;8.60;;;;;;;16.54;100.00;96357.10;109073;1281;22670;-81
2022/09/15 03:42:42;;;;;;;10.60;9.60;;;;;;;16.56;100.00;96357.59;109074;1281;22843;-90
2022/09/15 03:45:10;;;;;;;12.10;9.70;;;;;;;16.61;100.00;96358.48;109276;1269;22564;-85
2022/09/15 03:47:38;;;;;;;10.10;8.90;;;;;;;16.64;100.00;96355.78;109256;1279;23213;-89
2022/09/15 03:50:06;;;;;;;12.50;8.60;;;;;;;16.65;100.00;96359.05;108304;1280;22600;-90
2022/09/15 03:52:33;;;;;;;10.70;9.10;;;;;;;16.68;100.00;96360.25;107221;1280;22711;-92
2022/09/15 03:55:01;;;;;;;10.30;7.90;;;;;;;16.69;100.00;96361.81;107134;1280;22743;-92
2022/09/15 03:57:29;;;;;;;13.40;7.60;;;;;;;16.71;100.00;96359.65;107219;1280;25481;-93
2022/09/15 03:59:57;;;;;;;10.70;7.80;;;;;;;16.71;100.00;96362.94;107497;1280;22772;-90
2022/09/15 04:02:25;;;;;;;10.90;7.70;;;;;;;16.74;100.00;96362.94;107386;1279;24291;-92
2022/09/15 04:04:53;;;;;;;10.50;6.90;;;;;;;16.73;100.00;96360.05;107479;1280;22594;-93
2022/09/15 04:07:21;;;;;;;8.80;6.60;;;;;;;16.75;100.00;96359.07;107603;1280;22705;-91
2022/09/15 04:09:49;;;;;;;9.20;6.80;;;;;;;16.75;100.00;96354.95;108213;1280;22555;-90
2022/09/15 04:12:17;;;;;;;9.90;6.50;;;;;;;16.78;100.00;96356.33;109034;1280;23445;-92
2022/09/15 04:14:45;;;;;;;7.20;5.80;;;;;;;16.77;100.00;96355.63;108849;1280;24251;-90
2022/09/15 04:17:14;;;;;;;8.10;6.30;;;;;;;16.79;100.00;96356.41;108691;1280;24361;-92
2022/09/15 04:19:42;;;;;;;8.20;6.60;;;;;;;16.81;100.00;96358.38;108421;1279;22707;-91
2022/09/15 04:22:10;;;;;;;9.10;6.70;;;;;;;16.82;100.00;96355.65;108274;1279;24338;-94
2022/09/15 04:24:44;;;;;;;;;;;;;;;16.85;100.00;96352.80;108943;1280;23281;-92
2022/09/15 04:27:14;;;;;;;10.20;6.60;;;;;;;16.82;100.00;96354.25;108309;1280;22672;-90
2022/09/15 04:29:42;;;;;;;8.30;5.80;;;;;;;16.83;100.00;96355.20;108021;1280;22578;-91
2022/09/15 04:32:10;;;;;;;8.50;5.60;;;;;;;16.84;100.00;96356.98;108963;1279;22658;-89
2022/09/15 04:34:38;;;;;;;9.40;6.10;;;;;;;16.87;100.00;96353.13;109065;1270;25248;-92
2022/09/15 04:37:09;;;;;;;11.00;5.70;;;;;;;16.88;100.00;96353.82;107874;1280;25230;-92
2022/09/15 04:39:37;;;;;;;8.90;5.90;;;;;;;16.89;100.00;96356.71;107860;1280;22975;-93
2022/09/15 04:42:05;;;;;;;10.20;6.30;;;;;;;16.90;100.00;96354.16;107051;1280;22636;-89
2022/09/15 04:44:33;;;;;;;9.20;5.80;;;;;;;16.91;100.00;96353.23;106700;1281;23801;-92
2022/09/15 04:47:01;;;;;;;6.70;5.20;;;;;;;16.91;100.00;96353.08;106779;1280;22581;-93
2022/09/15 04:49:30;;;;;;;6.60;5.20;;;;;;;16.89;100.00;96347.70;107734;1281;22809;-92
2022/09/15 04:51:57;;;;;;;8.80;5.60;;;;;;;16.91;100.00;96349.27;108174;1280;22561;-92
2022/09/15 04:54:25;;;;;;;7.50;5.60;;;;;;;16.90;100.00;96341.65;108037;1279;22492;-88
2022/09/15 04:56:53;;;;;;;7.90;5.30;;;;;;;16.90;100.00;96341.18;107768;1281;22556;-90
2022/09/15 04:59:21;;;;;;;7.40;5.50;;;;;;;16.90;100.00;96342.42;108866;1279;22511;-84
2022/09/15 05:01:53;;;;;;;10.90;5.60;;;;;;;16.93;100.00;96341.97;109352;1280;22542;-86
2022/09/15 05:04:22;;;;;;;8.00;5.50;;;;;;;16.93;100.00;96342.75;107923;1278;22586;-90
2022/09/15 05:06:50;;;;;;;7.70;5.30;;;;;;;16.97;100.00;96340.69;108653;1280;24002;-92
2022/09/15 05:09:18;;;;;;;8.70;5.10;;;;;;;16.98;100.00;96341.86;106559;1279;23212;-91
2022/09/15 05:11:46;;;;;;;12.50;5.80;;;;;;;16.99;100.00;96341.55;106604;1280;25233;-91
2022/09/15 05:14:14;;;;;;;8.50;5.40;;;;;;;17.00;100.00;96336.34;107065;1280;22535;-92
2022/09/15 05:16:43;;;;;;;11.00;5.60;;;;;;;17.02;100.00;96336.52;106889;1281;25222;-92
2022/09/15 05:19:10;;;;;;;10.00;4.90;;;;;;;17.05;100.00;96337.80;107645;1281;26683;-93
2022/09/15 05:21:38;;;;;;;8.40;5.40;;;;;;;17.08;100.00;96337.26;107380;1280;23948;-93
2022/09/15 05:24:07;;;;;;;6.40;4.60;;;;;;;17.11;100.00;96344.42;108572;1280;22652;-92
2022/09/15 05:26:35;;;;;;;10.00;5.20;;;;;;;17.12;100.00;96343.51;108927;1280;23884;-92
2022/09/15 05:29:12;;;;;;;8.30;4.80;;;;;;;17.13;100.00;96340.09;109438;1268;23693;-86
2022/09/15 05:31:40;;;;;;;12.40;5.20;;;;;;;17.16;100.00;96340.35;109302;1268;23302;-91
2022/09/15 05:34:09;;;;;;;6.60;4.70;;;;;;;17.17;100.00;96334.98;109270;1268;22532;-92
2022/09/15 05:36:37;;;;;;;7.40;4.80;;;;;;;17.19;100.00;96336.00;109371;1268;22563;-88
2022/09/15 05:39:05;;;;;;;8.20;4.90;;;;;;;17.18;100.00;96334.75;108810;1268;22725;-90
2022/09/15 05:41:33;;;;;;;11.10;5.60;;;;;;;17.19;100.00;96332.04;108502;1280;22532;-89
2022/09/15 05:44:01;;;;;;;9.50;5.40;;;;;;;17.18;100.00;96334.21;108002;1278;22563;-90
2022/09/15 05:46:29;;;;;;;9.00;5.90;;;;;;;17.19;100.00;96337.41;107200;1280;25231;-94
2022/09/15 05:48:58;;;;;;;11.60;6.20;;;;;;;17.17;100.00;96330.00;108639;1280;22574;-84
2022/09/15 05:51:26;;;;;;;7.70;5.80;;;;;;;17.18;100.00;96338.09;108868;1268;22870;-83
2022/09/15 05:53:54;;;;;;;8.40;5.50;;;;;;;17.18;100.00;96337.17;108940;1270;22525;-90
2022/09/15 05:56:30;;;;;;;11.30;5.90;;;;;;;17.17;100.00;96335.29;109289;1270;22498;31
2022/09/15 05:59:19;;;;;;;14.10;6.80;;;;;;;17.18;100.00;96337.63;109322;1268;22857;31
2022/09/15 06:01:58;;;;;;;9.80;6.40;;;;;;;17.19;100.00;96342.08;109231;1269;22378;31
2022/09/15 06:04:34;;;;;;;11.20;6.90;;;;;;;17.21;100.00;96346.36;109260;1269;22815;31
2022/09/15 06:07:08;;;;;;;11.40;6.60;;;;;;;17.17;100.00;96340.28;109285;1269;22752;31
2022/09/15 06:09:36;;;;;;;10.60;7.20;;;;;;;17.22;100.00;96350.49;108291;1271;24120;-89
2022/09/15 06:12:11;;;;;;;11.30;7.00;;;;;;;17.22;100.00;96353.44;107399;1269;23016;31
2022/09/15 06:15:00;;;;;;;12.40;7.00;;;;;;;17.23;100.00;96357.80;109211;1269;22400;31
2022/09/15 06:17:37;;;;;;;7.40;5.10;;;;;;;17.25;100.00;96356.73;109113;1269;22587;31
2022/09/15 06:20:13;;;;;;;6.00;4.10;;;;;;;17.23;100.00;96351.58;109335;1268;22664;31
2022/09/15 06:22:51;;;;;;;8.00;4.30;;;;;;;17.20;100.00;96354.91;109208;1269;22755;31
2022/09/15 06:25:26;;;;;;;7.20;4.40;;;;;;;17.17;100.00;96354.11;109130;1270;22495;31
2022/09/15 06:28:13;;;;;;;7.40;4.60;;;;;;;17.16;100.00;96356.59;109147;1270;23426;31
2022/09/15 06:30:50;;;;;;;9.70;5.50;;;;;;;17.14;100.00;96351.15;109337;1268;22379;31
2022/09/15 06:33:26;;;;;;;7.90;4.40;;;;;;;17.14;100.00;96349.20;109205;1267;22499;31
2022/09/15 06:36:03;;;;;;;6.70;4.20;;;;;;;17.10;100.00;96354.52;109279;1270;22592;31
2022/09/15 06:38:40;;;;;;;5.50;4.30;;;;;;;17.06;100.00;96350.47;109291;1268;22503;31
2022/09/15 06:41:14;;;;;;;6.40;4.50;;;;;;;17.07;100.00;96350.70;109339;1268;22416;31
2022/09/15 06:43:52;;;;;;;;;;;;;;;17.08;100.00;96349.85;109276;1267;22506;31
2022/09/15 06:46:28;;;;;;;29.70;17.40;;;;;;;17.07;100.00;96352.88;109200;1269;22472;31
2022/09/15 06:49:04;;;;;;;48.70;22.40;;;;;;;17.08;100.00;96353.51;109230;1268;22492;31
2022/09/15 06:51:35;;;;;;;14.60;7.60;;;;;;;17.11;100.00;96367.58;109662;1279;22422;-81
2022/09/15 06:54:14;;;;;;;17.50;8.50;;;;;;;17.10;100.00;96366.36;109214;1269;22467;31
2022/09/15 06:56:44;;;;;;;26.60;12.30;;;;;;;17.09;100.00;96380.73;108972;1270;22562;-85
2022/09/15 06:59:24;;;;;;;28.80;14.10;;;;;;;16.96;100.00;96365.79;109407;1269;22470;31
2022/09/15 07:01:59;;;;;;;14.10;9.10;;;;;;;17.01;100.00;96381.38;108645;1272;22562;-81
2022/09/15 07:04:37;;;;;;;6.10;5.00;;;;;;;16.95;100.00;96387.94;108728;1269;23859;-91
2022/09/15 07:07:05;;;;;;;5.60;2.10;;;;;;;16.86;100.00;96401.94;106144;1280;24095;-91
2022/09/15 07:09:33;;;;;;;3.10;2.00;;;;;;;16.61;100.00;96414.58;106670;1280;22553;-88
2022/09/15 07:12:01;;;;;;;2.30;1.50;;;;;;;16.25;100.00;96438.59;106344;1280;24207;-89
2022/09/15 07:14:29;;;;;;;2.60;1.50;;;;;;;15.86;100.00;96440.45;106558;1280;24362;-91
2022/09/15 07:16:57;;;;;;;1.40;1.30;;;;;;;15.59;100.00;96444.02;106323;1280;22711;-86
2022/09/15 07:19:25;;;;;;;2.40;1.40;;;;;;;15.47;100.00;96453.47;106663;1280;22544;-92
2022/09/15 07:21:52;;;;;;;3.00;1.40;;;;;;;15.34;100.00;96464.29;106344;1280;23648;-92
2022/09/15 07:24:20;;;;;;;3.00;1.40;;;;;;;15.25;100.00;96469.72;106342;1280;22550;-91
2022/09/15 07:26:48;;;;;;;1.90;1.40;;;;;;;15.10;100.00;96476.07;106241;1280;22859;-91
2022/09/15 07:29:16;;;;;;;1.40;1.20;;;;;;;15.05;100.00;96488.95;106337;1280;22559;-83
2022/09/15 07:31:44;;;;;;;1.60;1.50;;;;;;;15.02;100.00;96493.39;105820;1281;22583;-84
2022/09/15 07:34:12;;;;;;;1.50;1.40;;;;;;;15.14;100.00;96503.42;105850;1280;25243;-83
2022/09/15 07:36:40;;;;;;;2.50;1.70;;;;;;;15.22;100.00;96514.33;105757;1280;24366;-83
2022/09/15 07:39:09;;;;;;;5.90;2.00;;;;;;;15.24;100.00;96525.14;105763;1280;22735;-83
2022/09/15 07:41:37;;;;;;;2.30;1.60;;;;;;;15.27;100.00;96537.13;105753;1280;24175;-85
2022/09/15 07:44:07;;;;;;;2.20;2.00;;;;;;;15.35;100.00;96544.71;105867;1280;22701;-84
2022/09/15 07:46:35;;;;;;;4.10;2.30;;;;;;;15.39;100.00;96549.05;105887;1280;22538;-83
2022/09/15 07:49:05;;;;;;;3.80;2.20;;;;;;;15.47;100.00;96554.29;105567;1283;22636;-83
2022/09/15 07:51:33;;;;;;;2.40;2.20;;;;;;;15.59;100.00;96558.05;105607;1281;22777;-83
2022/09/15 07:54:01;;;;;;;2.20;2.00;;;;;;;15.69;100.00;96579.55;105923;1280;24394;-83
2022/09/15 07:56:29;;;;;;;3.10;2.10;;;;;;;15.65;100.00;96590.52;105918;1280;25510;-85
2022/09/15 07:58:57;;;;;;;3.00;2.20;;;;;;;15.65;100.00;96605.39;105651;1281;25307;-83
2022/09/15 08:01:25;;;;;;;2.00;1.70;;;;;;;15.58;100.00;96604.80;105869;1280;24083;-84
2022/09/15 08:03:53;;;;;;;3.70;2.10;;;;;;;15.61;100.00;96610.28;105932;1280;22544;-83
2022/09/15 08:06:24;;;;;;;2.60;2.20;;;;;;;15.59;100.00;96610.19;106005;1280;22566;-83
2022/09/15 08:08:52;;;;;;;2.70;2.50;;;;;;;15.57;100.00;96613.94;105974;1280;22581;-83
2022/09/15 08:11:28;;;;;;;3.20;2.50;;;;;;;15.59;100.00;96612.50;105965;1280;22558;-82
2022/09/15 08:14:01;;;;;;;3.50;3.20;;;;;;;15.58;100.00;96608.08;105643;1280;25395;-86
2022/09/15 08:16:29;;;;;;;4.90;3.90;;;;;;;15.71;100.00;96610.63;105998;1280;22625;-83
2022/09/15 08:18:57;;;;;;;5.70;4.50;;;;;;;15.81;100.00;96612.89;105613;1281;24281;-87
2022/09/15 08:21:26;;;;;;;5.10;3.90;;;;;;;15.85;100.00;96606.36;105962;1280;22663;-83
2022/09/15 08:23:57;;;;;;;5.10;3.70;;;;;;;15.91;100.00;96606.69;106163;1280;22601;-84
2022/09/15 08:26:26;;;;;;;4.10;3.10;;;;;;;15.96;100.00;96611.65;106793;1280;22547;-86
2022/09/15 08:28:54;;;;;;;3.80;2.70;;;;;;;16.02;100.00;96614.30;105908;1280;22580;-86
2022/09/15 08:31:23;;;;;;;3.10;2.40;;;;;;;16.09;100.00;96624.80;105835;1280;23504;-84
2022/09/15 08:33:54;;;;;;;2.60;2.40;;;;;;;16.17;100.00;96637.96;105760;1280;24388;-83
2022/09/15 08:36:26;;;;;;;2.40;2.20;;;;;;;16.11;100.00;96643.46;105664;1280;25246;-86
2022/09/15 08:38:55;;;;;;;2.90;2.70;;;;;;;16.05;100.00;96642.91;105670;1280;25522;-85
2022/09/15 08:41:25;;;;;;;2.60;2.40;;;;;;;16.12;100.00;96651.40;105922;1280;22556;-85
2022/09/15 08:44:30;;;;;;;3.80;2.90;;;;;;;16.20;100.00;96663.24;105905;1280;22649;-82
2022/09/15 08:47:22;;;;;;;2.80;2.40;;;;;;;16.19;100.00;96669.05;105818;1280;25385;-83
2022/09/15 08:50:29;;;;;;;3.20;2.30;;;;;;;16.16;100.00;96680.20;105911;1280;24425;-83
2022/09/15 08:53:19;;;;;;;2.40;2.20;;;;;;;16.09;100.00;96678.68;105942;1280;22556;-82
2022/09/15 08:55:57;;;;;;;3.20;2.90;;;;;;;16.08;100.00;96681.61;105929;1280;22874;-83
2022/09/15 08:58:30;;;;;;;4.00;3.30;;;;;;;16.13;100.00;96683.10;106035;1279;22763;-83
2022/09/15 09:01:22;;;;;;;3.50;3.10;;;;;;;16.11;100.00;96676.86;107112;1281;22576;-83
2022/09/15 09:04:24;;;;;;;3.90;3.40;;;;;;;16.16;100.00;96688.41;106062;1280;22739;-83
2022/09/15 09:07:07;;;;;;;5.70;3.50;;;;;;;16.16;100.00;96690.27;106007;1280;22546;-84
2022/09/15 09:09:42;;;;;;;4.20;3.80;;;;;;;16.11;100.00;96693.48;106159;1280;22688;-84
2022/09/15 09:12:40;;;;;;;4.80;3.40;;;;;;;16.06;100.00;96695.33;106118;1280;22541;-84
2022/09/15 09:15:34;;;;;;;5.30;3.30;;;;;;;16.07;100.00;96698.76;105935;1280;26575;-85
2022/09/15 09:18:35;;;;;;;5.90;3.60;;;;;;;16.08;100.00;96692.64;106009;1281;24303;-83
2022/09/15 09:21:27;;;;;;;6.70;3.50;;;;;;;16.10;100.00;96694.63;105070;1287;22537;-85
2022/09/15 09:24:02;;;;;;;6.20;4.10;;;;;;;16.16;100.00;96697.96;104992;1287;24432;-85
2022/09/15 09:26:33;;;;;;;4.20;3.00;;;;;;;16.18;100.00;96703.66;104928;1287;23956;-85
2022/09/15 09:29:12;;;;;;;4.90;3.70;;;;;;;16.21;100.00;96710.48;104873;1287;22568;-83
2022/09/15 09:31:40;;;;;;;4.80;3.70;;;;;;;16.18;100.00;96713.30;104848;1287;25358;-84
2022/09/15 09:34:21;;;;;;;4.00;3.40;;;;;;;16.17;100.00;96714.76;104901;1287;22789;-85
2022/09/15 09:37:10;;;;;;;6.50;4.10;;;;;;;16.12;100.00;96709.73;104852;1287;22560;-84
2022/09/15 09:39:38;;;;;;;7.00;4.20;;;;;;;16.11;100.00;96705.83;104855;1287;23295;-84
2022/09/15 09:42:13;;;;;;;6.20;4.40;;;;;;;16.09;100.00;96707.04;104910;1287;24387;-84
2022/09/15 09:44:41;;;;;;;6.00;5.00;;;;;;;16.09;100.00;96705.95;104864;1287;22901;-83
2022/09/15 09:47:11;;;;;;;6.00;4.70;;;;;;;16.09;100.00;96706.48;104838;1287;24279;-84
2022/09/15 09:49:47;;;;;;;6.10;5.40;;;;;;;16.07;100.00;96710.33;104784;1288;22668;-85
2022/09/15 09:52:33;;;;;;;8.50;6.10;;;;;;;16.07;100.00;96703.17;104901;1287;25363;-83
2022/09/15 09:55:17;;;;;;;8.40;7.00;;;;;;;16.09;100.00;96706.17;103378;1288;2029074;-84
2022/09/15 09:57:45;;;;;;;7.10;6.10;;;;;;;16.15;100.00;96705.80;105300;1281;22564;-83
2022/09/15 10:00:35;;;;;;;7.10;5.70;;;;;;;16.17;100.00;96705.05;105767;1280;24200;-83
2022/09/15 10:03:22;;;;;;;7.40;5.20;;;;;;;16.20;100.00;96707.11;105721;1280;25236;-85
2022/09/15 10:06:10;;;;;;;11.10;7.50;;;;;;;16.23;100.00;96704.06;105798;1280;22651;-83
2022/09/15 10:08:51;;;;;;;9.50;8.50;;;;;;;16.28;100.00;96703.44;105786;1280;22767;-84
2022/09/15 10:11:21;;;;;;;11.60;8.70;;;;;;;16.31;100.00;96707.45;105815;1280;24250;-84
2022/09/15 10:13:52;;;;;;;9.20;6.50;;;;;;;16.32;100.00;96709.48;105866;1280;22886;-84
2022/09/15 10:16:21;;;;;;;20.80;13.90;;;;;;;16.29;100.00;96704.23;105707;1280;22713;-84
2022/09/15 10:18:49;;;;;;;37.20;17.60;;;;;;;16.30;100.00;96703.86;105793;1280;22573;-84
2022/09/15 10:21:23;;;;;;;26.50;15.40;;;;;;;16.35;100.00;96704.80;105822;1279;25461;-84
2022/09/15 10:23:51;;;;;;;15.70;10.20;;;;;;;16.39;100.00;96705.16;105992;1280;24250;-84
2022/09/15 10:26:33;;;;;;;17.40;11.60;;;;;;;16.43;100.00;96697.91;105982;1280;25477;-84
2022/09/15 10:29:11;;;;;;;12.40;9.30;;;;;;;16.51;100.00;96700.29;105972;1280;22576;-84
2022/09/15 10:31:40;;;;;;;9.50;6.70;;;;;;;16.61;100.00;96697.70;105851;1280;22554;-82
2022/09/15 10:34:25;;;;;;;16.70;6.70;;;;;;;16.68;100.00;96694.38;105705;1280;25194;-84
2022/09/15 10:37:20;;;;;;;14.40;6.30;;;;;;;16.71;100.00;96697.92;105904;1280;22638;-83
2022/09/15 10:39:58;;;;;;;12.70;8.60;;;;;;;16.63;100.00;96703.56;105954;1280;22550;-83
2022/09/15 10:42:45;;;;;;;8.70;5.20;;;;;;;16.60;100.00;96703.84;106023;1280;22748;-83
2022/09/15 10:45:37;;;;;;;7.60;6.70;;;;;;;16.57;100.00;96702.55;105685;1280;22560;-85
2022/09/15 10:48:42;;;;;;;7.40;5.60;;;;;;;16.56;100.00;96699.96;106224;1280;22573;-84
2022/09/15 10:51:36;;;;;;;8.50;5.60;;;;;;;16.56;100.00;96703.02;105744;1280;22861;-84
2022/09/15 10:54:22;;;;;;;9.10;6.10;;;;;;;16.52;100.00;96700.38;106115;1280;22596;-85
2022/09/15 10:57:29;;;;;;;6.80;5.60;;;;;;;16.51;100.00;96700.35;106132;1280;22656;-83
2022/09/15 11:00:10;;;;;;;6.20;5.40;;;;;;;16.47;100.00;96698.05;106014;1280;23043;-84
2022/09/15 11:02:54;;;;;;;6.00;4.20;;;;;;;16.40;100.00;96697.33;107043;1279;25296;-84
2022/09/15 11:05:33;;;;;;;7.30;4.80;;;;;;;16.27;100.00;96691.31;105937;1280;24293;-84
2022/09/15 11:08:28;;;;;;;5.90;4.70;;;;;;;16.27;100.00;96685.64;105901;1281;22664;-84
2022/09/15 11:11:04;;;;;;;6.80;5.10;;;;;;;16.24;100.00;96690.95;105963;1280;24222;-83
2022/09/15 11:13:44;;;;;;;5.40;4.40;;;;;;;16.20;100.00;96690.05;106016;1280;25280;-84
2022/09/15 11:16:56;;;;;;;5.20;4.30;;;;;;;16.20;100.00;96684.84;106009;1280;23228;-84
2022/09/15 11:19:59;;;;;;;5.60;4.30;;;;;;;16.21;100.00;96685.25;105596;1280;24583;-84
2022/09/15 11:22:37;;;;;;;5.20;4.10;;;;;;;16.33;100.00;96683.25;105992;1280;24282;-84
2022/09/15 11:25:14;;;;;;;5.10;4.10;;;;;;;16.46;100.00;96677.08;105982;1280;24387;-83
2022/09/15 11:27:50;;;;;;;6.10;4.40;;;;;;;16.60;100.00;96668.56;105995;1280;22711;-85
2022/09/15 11:30:21;;;;;;;6.60;5.00;;;;;;;16.72;100.00;96660.09;106221;1280;22854;-83
2022/09/15 11:33:01;;;;;;;5.70;4.80;;;;;;;16.84;100.00;96656.54;106381;1280;22544;-85
2022/09/15 11:35:54;;;;;;;6.40;4.20;;;;;;;17.01;100.00;96659.01;106051;1280;22581;-85
2022/09/15 11:38:36;;;;;;;5.50;3.80;;;;;;;17.12;100.00;96660.00;106054;1280;22575;-83
2022/09/15 11:41:37;;;;;;;4.20;3.80;;;;;;;17.01;100.00;96657.52;105979;1280;24215;-85
2022/09/15 11:44:21;;;;;;;4.80;4.10;;;;;;;16.95;99.96;96651.31;105096;1287;24316;-88
2022/09/15 11:47:04;;;;;;;5.80;4.60;;;;;;;16.87;100.00;96651.92;105080;1287;26527;-89
2022/09/15 11:49:54;;;;;;;5.90;3.70;;;;;;;16.85;100.00;96652.75;104993;1287;22642;-87
2022/09/15 11:53:00;;;;;;;6.90;4.20;;;;;;;16.81;100.00;96654.18;104980;1287;22898;-87
2022/09/15 11:55:41;;;;;;;5.60;4.90;;;;;;;16.82;100.00;96651.08;105072;1287;25327;-86
2022/09/15 11:58:36;;;;;;;5.30;4.00;;;;;;;16.84;99.92;96650.00;105085;1287;22881;-88
2022/09/15 12:01:14;;;;;;;6.20;4.30;;;;;;;16.86;100.00;96654.31;105114;1287;25378;-88
2022/09/15 12:04:20;;;;;;;5.60;3.70;;;;;;;16.93;100.00;96645.08;104878;1287;22577;-87
2022/09/15 12:07:03;;;;;;;4.60;3.00;;;;;;;17.00;99.99;96644.07;104880;1288;25427;-88
2022/09/15 12:09:32;;;;;;;4.10;3.50;;;;;;;17.06;100.00;96640.16;104902;1288;22569;-85